首页
METAR-TAF:

METAR-TAF

机场 :

威廉姆斯湖, 不列颠哥伦比亚, 加拿大

纬度: 52-11N, 经度: 122-03W, 海拔: 940米

当前天气观测

该预报发布于18分钟前的17:00 UTC
风速6节,风向西
温度 12°C
湿度 58%
气压 1021 hPa
能見度: 24.1公里
多云层高于6000英尺

METAR: CYWL 081700Z 26006KT 15SM BKN060 12/04 A3014 RMK CU7 SLP215 DENSITY ALT 3200FT

时间: 10:18 (17:18 UTC)

预报

该预报发布于4小时和40分钟前的12:38 UTC
预报有效从08日的 13点(UTC)到 09日的 01点(UTC)
风速5节,风向西转西南
能見度: 10公里
散云层高于2000英尺
多云层高于5000英尺
从 08日的 1600点(UTC)
风速8节,风向西
能見度: 10公里
多云层高于5000英尺
短暂存在
从 08日的 16点(UTC)到 09日的 01点(UTC)
能見度: 10公里
小阵雨

TAF: CYWL 081238Z 0813/0901 25005KT P6SM SCT020 BKN050 FM081600 27008KT P6SM BKN050 TEMPO 0816/0901 P6SM -SHRA RMK NXT FCST BY 081900Z

超过4000个机场的气象观测和天气预报(METAR&TAF报告)。

可查询的气象台以黄色和红色小点在地图上表示。

将鼠标移到小点上方,可查看气象台名称。

然后点击查看天气观测和预报。

如需切换地图:点击带黑十字的绿色按钮放大地图;点击带横线的绿色按钮缩小地图;或者点击绿色箭头查看邻近地区的地图。


METAR-TAF: